sensor_id;sensor_type;location;lat;lon;timestamp;pressure;altitude;pressure_sealevel;temperature;humidity
9784;BME280;4931;44.874;-1.092;2023-05-02T00:00:00;102027.63;;;9.35;100.00
9784;BME280;4931;44.874;-1.092;2023-05-02T00:02:26;102028.47;;;9.35;100.00
9784;BME280;4931;44.874;-1.092;2023-05-02T00:04:51;102026.31;;;9.37;100.00
9784;BME280;4931;44.874;-1.092;2023-05-02T00:07:17;102018.47;;;9.29;100.00
9784;BME280;4931;44.874;-1.092;2023-05-02T00:09:42;102019.41;;;9.23;100.00
9784;BME280;4931;44.874;-1.092;2023-05-02T00:12:08;102017.75;;;9.22;100.00
9784;BME280;4931;44.874;-1.092;2023-05-02T00:14:33;102021.09;;;9.24;100.00
9784;BME280;4931;44.874;-1.092;2023-05-02T00:16:59;102014.06;;;9.16;100.00
9784;BME280;4931;44.874;-1.092;2023-05-02T00:19:24;102014.09;;;9.04;100.00
9784;BME280;4931;44.874;-1.092;2023-05-02T00:21:50;102004.91;;;9.10;100.00
9784;BME280;4931;44.874;-1.092;2023-05-02T00:24:17;102004.91;;;9.10;100.00
9784;BME280;4931;44.874;-1.092;2023-05-02T00:26:42;102007.06;;;9.08;100.00
9784;BME280;4931;44.874;-1.092;2023-05-02T00:29:08;102009.34;;;9.00;100.00
9784;BME280;4931;44.874;-1.092;2023-05-02T00:31:33;102012.41;;;9.03;100.00
9784;BME280;4931;44.874;-1.092;2023-05-02T00:34:00;102014.44;;;8.96;100.00
9784;BME280;4931;44.874;-1.092;2023-05-02T00:36:25;102003.50;;;8.96;100.00
9784;BME280;4931;44.874;-1.092;2023-05-02T00:38:51;101997.41;;;8.94;100.00
9784;BME280;4931;44.874;-1.092;2023-05-02T00:41:17;102010.16;;;9.00;100.00
9784;BME280;4931;44.874;-1.092;2023-05-02T00:43:43;101992.56;;;8.96;100.00
9784;BME280;4931;44.874;-1.092;2023-05-02T00:46:08;101997.19;;;8.84;100.00
9784;BME280;4931;44.874;-1.092;2023-05-02T00:48:36;101992.81;;;8.83;100.00
9784;BME280;4931;44.874;-1.092;2023-05-02T00:51:03;101987.78;;;8.79;100.00
9784;BME280;4931;44.874;-1.092;2023-05-02T00:53:32;101982.81;;;8.76;100.00
9784;BME280;4931;44.874;-1.092;2023-05-02T00:55:58;101984.34;;;8.84;100.00
9784;BME280;4931;44.874;-1.092;2023-05-02T00:58:25;101976.72;;;8.86;100.00
9784;BME280;4931;44.874;-1.092;2023-05-02T01:10:16;101978.34;;;8.40;100.00
9784;BME280;4931;44.874;-1.092;2023-05-02T01:13:16;101977.44;;;8.46;100.00
9784;BME280;4931;44.874;-1.092;2023-05-02T01:15:43;101977.78;;;8.50;100.00
9784;BME280;4931;44.874;-1.092;2023-05-02T01:18:11;101970.50;;;8.43;100.00
9784;BME280;4931;44.874;-1.092;2023-05-02T01:20:39;101967.63;;;8.38;100.00
9784;BME280;4931;44.874;-1.092;2023-05-02T01:23:15;101974.66;;;8.34;100.00
9784;BME280;4931;44.874;-1.092;2023-05-02T01:25:58;101970.94;;;8.40;100.00
9784;BME280;4931;44.874;-1.092;2023-05-02T01:30:58;101970.38;;;8.38;100.00
9784;BME280;4931;44.874;-1.092;2023-05-02T01:33:27;101979.75;;;8.42;100.00
9784;BME280;4931;44.874;-1.092;2023-05-02T01:35:55;101976.91;;;8.37;100.00
9784;BME280;4931;44.874;-1.092;2023-05-02T01:38:22;101979.25;;;8.34;100.00
9784;BME280;4931;44.874;-1.092;2023-05-02T01:40:50;101989.72;;;8.25;100.00
9784;BME280;4931;44.874;-1.092;2023-05-02T01:43:18;101979.38;;;8.27;100.00
9784;BME280;4931;44.874;-1.092;2023-05-02T01:45:47;101976.50;;;8.22;100.00
9784;BME280;4931;44.874;-1.092;2023-05-02T01:48:15;101980.44;;;8.26;100.00
9784;BME280;4931;44.874;-1.092;2023-05-02T01:50:43;101978.69;;;8.31;100.00
9784;BME280;4931;44.874;-1.092;2023-05-02T01:53:10;101968.06;;;8.23;100.00
9784;BME280;4931;44.874;-1.092;2023-05-02T01:55:40;101971.53;;;8.19;100.00
9784;BME280;4931;44.874;-1.092;2023-05-02T01:58:08;101978.28;;;8.16;100.00
9784;BME280;4931;44.874;-1.092;2023-05-02T02:00:35;101976.50;;;8.22;100.00
9784;BME280;4931;44.874;-1.092;2023-05-02T02:03:05;101971.03;;;8.22;100.00
9784;BME280;4931;44.874;-1.092;2023-05-02T02:05:33;101977.91;;;8.12;100.00
9784;BME280;4931;44.874;-1.092;2023-05-02T02:07:59;101980.25;;;7.97;100.00
9784;BME280;4931;44.874;-1.092;2023-05-02T02:10:26;101980.72;;;7.94;100.00
9784;BME280;4931;44.874;-1.092;2023-05-02T02:13:00;101977.41;;;7.92;100.00
9784;BME280;4931;44.874;-1.092;2023-05-02T02:15:30;101981.78;;;7.93;100.00
9784;BME280;4931;44.874;-1.092;2023-05-02T02:18:09;101987.09;;;7.88;100.00
9784;BME280;4931;44.874;-1.092;2023-05-02T02:20:36;101986.50;;;7.86;100.00
9784;BME280;4931;44.874;-1.092;2023-05-02T02:23:05;101983.78;;;7.86;100.00
9784;BME280;4931;44.874;-1.092;2023-05-02T02:25:33;101988.88;;;7.82;100.00
9784;BME280;4931;44.874;-1.092;2023-05-02T02:28:00;101997.59;;;7.91;100.00
9784;BME280;4931;44.874;-1.092;2023-05-02T02:30:25;101999.69;;;7.89;100.00
9784;BME280;4931;44.874;-1.092;2023-05-02T02:32:51;101994.72;;;7.86;100.00
9784;BME280;4931;44.874;-1.092;2023-05-02T02:35:17;101998.97;;;7.81;100.00
9784;BME280;4931;44.874;-1.092;2023-05-02T02:37:47;102002.63;;;7.75;100.00
9784;BME280;4931;44.874;-1.092;2023-05-02T02:40:38;101994.50;;;7.69;100.00
9784;BME280;4931;44.874;-1.092;2023-05-02T02:48:42;101979.97;;;7.38;100.00
9784;BME280;4931;44.874;-1.092;2023-05-02T02:51:22;101982.34;;;7.34;100.00
9784;BME280;4931;44.874;-1.092;2023-05-02T02:56:21;101985.06;;;7.15;100.00
9784;BME280;4931;44.874;-1.092;2023-05-02T03:01:42;101990.22;;;7.05;100.00
9784;BME280;4931;44.874;-1.092;2023-05-02T03:04:12;101988.97;;;7.01;100.00
9784;BME280;4931;44.874;-1.092;2023-05-02T03:06:40;101994.44;;;7.01;100.00
9784;BME280;4931;44.874;-1.092;2023-05-02T03:09:14;101992.34;;;7.03;100.00
9784;BME280;4931;44.874;-1.092;2023-05-02T03:11:42;101984.28;;;6.90;100.00
9784;BME280;4931;44.874;-1.092;2023-05-02T03:14:07;101988.78;;;6.77;100.00
9784;BME280;4931;44.874;-1.092;2023-05-02T03:16:35;101992.44;;;6.71;100.00
9784;BME280;4931;44.874;-1.092;2023-05-02T03:19:02;101985.47;;;6.75;100.00
9784;BME280;4931;44.874;-1.092;2023-05-02T03:21:28;101983.66;;;6.88;100.00
9784;BME280;4931;44.874;-1.092;2023-05-02T03:23:59;101975.25;;;6.89;100.00
9784;BME280;4931;44.874;-1.092;2023-05-02T03:26:25;101964.41;;;6.82;100.00
9784;BME280;4931;44.874;-1.092;2023-05-02T03:28:51;101964.81;;;6.86;100.00
9784;BME280;4931;44.874;-1.092;2023-05-02T03:31:17;101962.81;;;6.75;100.00
9784;BME280;4931;44.874;-1.092;2023-05-02T03:33:43;101966.53;;;6.62;100.00
9784;BME280;4931;44.874;-1.092;2023-05-02T03:36:08;101956.78;;;6.47;100.00
9784;BME280;4931;44.874;-1.092;2023-05-02T03:38:35;101957.66;;;6.41;100.00
9784;BME280;4931;44.874;-1.092;2023-05-02T03:41:01;101954.06;;;6.47;100.00
9784;BME280;4931;44.874;-1.092;2023-05-02T03:43:27;101955.44;;;6.57;100.00
9784;BME280;4931;44.874;-1.092;2023-05-02T03:45:53;101956.34;;;6.51;100.00
9784;BME280;4931;44.874;-1.092;2023-05-02T03:48:27;101951.75;;;6.44;100.00
9784;BME280;4931;44.874;-1.092;2023-05-02T03:50:52;101947.09;;;6.52;100.00
9784;BME280;4931;44.874;-1.092;2023-05-02T03:53:18;101942.78;;;6.62;100.00
9784;BME280;4931;44.874;-1.092;2023-05-02T03:55:43;101941.38;;;6.78;100.00
9784;BME280;4931;44.874;-1.092;2023-05-02T03:58:10;101940.03;;;6.88;100.00
9784;BME280;4931;44.874;-1.092;2023-05-02T04:00:35;101940.47;;;6.85;100.00
9784;BME280;4931;44.874;-1.092;2023-05-02T04:03:02;101937.53;;;6.86;100.00
9784;BME280;4931;44.874;-1.092;2023-05-02T04:05:28;101930.31;;;6.92;100.00
9784;BME280;4931;44.874;-1.092;2023-05-02T04:07:57;101927.75;;;6.97;100.00
9784;BME280;4931;44.874;-1.092;2023-05-02T04:10:22;101938.66;;;6.97;100.00
9784;BME280;4931;44.874;-1.092;2023-05-02T04:12:48;101935.66;;;7.05;100.00
9784;BME280;4931;44.874;-1.092;2023-05-02T04:15:13;101934.97;;;7.10;100.00
9784;BME280;4931;44.874;-1.092;2023-05-02T04:17:39;101937.00;;;7.14;100.00
9784;BME280;4931;44.874;-1.092;2023-05-02T04:20:05;101935.94;;;7.15;100.00
9784;BME280;4931;44.874;-1.092;2023-05-02T04:22:31;101949.72;;;7.21;100.00
9784;BME280;4931;44.874;-1.092;2023-05-02T04:24:58;101940.78;;;7.13;100.00
9784;BME280;4931;44.874;-1.092;2023-05-02T04:27:23;101939.66;;;7.21;100.00
9784;BME280;4931;44.874;-1.092;2023-05-02T04:29:51;101938.59;;;7.04;100.00
9784;BME280;4931;44.874;-1.092;2023-05-02T04:32:20;101933.34;;;7.02;100.00
9784;BME280;4931;44.874;-1.092;2023-05-02T04:34:46;101928.53;;;7.04;100.00
9784;BME280;4931;44.874;-1.092;2023-05-02T04:37:11;101929.56;;;7.03;100.00
9784;BME280;4931;44.874;-1.092;2023-05-02T04:39:37;101931.09;;;6.99;100.00
9784;BME280;4931;44.874;-1.092;2023-05-02T04:42:02;101930.56;;;6.90;100.00
9784;BME280;4931;44.874;-1.092;2023-05-02T04:44:28;101931.19;;;6.92;100.00
9784;BME280;4931;44.874;-1.092;2023-05-02T04:46:53;101937.44;;;6.93;100.00
9784;BME280;4931;44.874;-1.092;2023-05-02T04:49:19;101940.66;;;7.08;100.00
9784;BME280;4931;44.874;-1.092;2023-05-02T04:51:45;101941.94;;;6.87;100.00
9784;BME280;4931;44.874;-1.092;2023-05-02T04:54:11;101948.69;;;7.03;100.00
9784;BME280;4931;44.874;-1.092;2023-05-02T04:56:37;101945.63;;;7.11;100.00
9784;BME280;4931;44.874;-1.092;2023-05-02T04:59:02;101949.00;;;7.13;100.00
9784;BME280;4931;44.874;-1.092;2023-05-02T05:01:28;101952.47;;;7.21;100.00
9784;BME280;4931;44.874;-1.092;2023-05-02T05:03:54;101953.97;;;7.17;100.00
9784;BME280;4931;44.874;-1.092;2023-05-02T05:06:20;101954.28;;;7.27;100.00
9784;BME280;4931;44.874;-1.092;2023-05-02T05:08:45;101968.53;;;7.29;100.00
9784;BME280;4931;44.874;-1.092;2023-05-02T05:11:11;101963.69;;;7.31;100.00
9784;BME280;4931;44.874;-1.092;2023-05-02T05:13:37;101963.09;;;7.29;100.00
9784;BME280;4931;44.874;-1.092;2023-05-02T05:16:03;101959.28;;;7.30;100.00
9784;BME280;4931;44.874;-1.092;2023-05-02T05:18:29;101960.63;;;7.39;100.00
9784;BME280;4931;44.874;-1.092;2023-05-02T05:20:54;101971.53;;;7.39;100.00
9784;BME280;4931;44.874;-1.092;2023-05-02T05:23:20;101968.69;;;7.34;100.00
9784;BME280;4931;44.874;-1.092;2023-05-02T05:25:45;101964.38;;;7.26;100.00
9784;BME280;4931;44.874;-1.092;2023-05-02T05:28:11;101977.56;;;7.29;100.00
9784;BME280;4931;44.874;-1.092;2023-05-02T05:30:37;101982.78;;;7.31;100.00
9784;BME280;4931;44.874;-1.092;2023-05-02T05:33:02;101970.03;;;7.25;100.00
9784;BME280;4931;44.874;-1.092;2023-05-02T05:35:28;101972.34;;;7.28;100.00
9784;BME280;4931;44.874;-1.092;2023-05-02T05:37:53;101973.16;;;7.28;100.00
9784;BME280;4931;44.874;-1.092;2023-05-02T05:40:19;101972.34;;;7.28;100.00
9784;BME280;4931;44.874;-1.092;2023-05-02T05:42:45;101976.59;;;7.24;100.00
9784;BME280;4931;44.874;-1.092;2023-05-02T05:45:12;101977.41;;;7.24;100.00
9784;BME280;4931;44.874;-1.092;2023-05-02T05:47:44;101978.38;;;7.30;100.00
9784;BME280;4931;44.874;-1.092;2023-05-02T05:50:09;101977.53;;;7.48;100.00
9784;BME280;4931;44.874;-1.092;2023-05-02T05:52:35;101983.88;;;7.79;100.00
9784;BME280;4931;44.874;-1.092;2023-05-02T05:55:01;101991.78;;;7.99;100.00
9784;BME280;4931;44.874;-1.092;2023-05-02T05:57:28;101980.50;;;8.07;100.00
9784;BME280;4931;44.874;-1.092;2023-05-02T05:59:54;101986.31;;;7.99;100.00
9784;BME280;4931;44.874;-1.092;2023-05-02T06:02:20;101981.97;;;8.22;100.00
9784;BME280;4931;44.874;-1.092;2023-05-02T06:04:45;101988.97;;;8.60;100.00
9784;BME280;4931;44.874;-1.092;2023-05-02T06:07:11;101980.06;;;8.88;100.00
9784;BME280;4931;44.874;-1.092;2023-05-02T06:09:36;101977.06;;;9.13;100.00
9784;BME280;4931;44.874;-1.092;2023-05-02T06:12:02;101976.78;;;9.27;100.00
9784;BME280;4931;44.874;-1.092;2023-05-02T06:14:28;101979.69;;;9.61;100.00
9784;BME280;4931;44.874;-1.092;2023-05-02T06:16:53;101976.38;;;9.88;100.00
9784;BME280;4931;44.874;-1.092;2023-05-02T06:19:19;101984.56;;;10.17;100.00
9784;BME280;4931;44.874;-1.092;2023-05-02T06:21:44;101995.09;;;10.54;100.00
9784;BME280;4931;44.874;-1.092;2023-05-02T06:24:10;101991.34;;;10.77;100.00
9784;BME280;4931;44.874;-1.092;2023-05-02T06:26:35;101987.53;;;11.00;100.00
9784;BME280;4931;44.874;-1.092;2023-05-02T06:29:01;101988.31;;;11.35;100.00
9784;BME280;4931;44.874;-1.092;2023-05-02T06:31:26;101982.78;;;11.57;100.00
9784;BME280;4931;44.874;-1.092;2023-05-02T06:33:52;101982.25;;;11.82;100.00
9784;BME280;4931;44.874;-1.092;2023-05-02T06:36:17;101987.78;;;12.09;100.00
9784;BME280;4931;44.874;-1.092;2023-05-02T06:38:43;101986.56;;;12.27;100.00
9784;BME280;4931;44.874;-1.092;2023-05-02T06:41:12;101993.56;;;12.40;100.00
9784;BME280;4931;44.874;-1.092;2023-05-02T06:43:39;101982.09;;;12.54;100.00
9784;BME280;4931;44.874;-1.092;2023-05-02T06:46:05;101981.31;;;13.01;100.00
9784;BME280;4931;44.874;-1.092;2023-05-02T06:48:30;101974.22;;;13.16;100.00
9784;BME280;4931;44.874;-1.092;2023-05-02T06:50:55;101967.69;;;13.27;100.00
9784;BME280;4931;44.874;-1.092;2023-05-02T06:53:21;101981.09;;;13.66;100.00
9784;BME280;4931;44.874;-1.092;2023-05-02T06:55:47;101977.00;;;13.94;100.00
9784;BME280;4931;44.874;-1.092;2023-05-02T06:58:13;101985.06;;;14.27;100.00
9784;BME280;4931;44.874;-1.092;2023-05-02T07:00:38;101973.22;;;14.42;100.00
9784;BME280;4931;44.874;-1.092;2023-05-02T07:03:04;101982.84;;;14.50;100.00
9784;BME280;4931;44.874;-1.092;2023-05-02T07:05:29;101978.16;;;14.81;100.00
9784;BME280;4931;44.874;-1.092;2023-05-02T07:07:55;101974.81;;;15.00;100.00
9784;BME280;4931;44.874;-1.092;2023-05-02T07:10:21;101997.44;;;15.17;100.00
9784;BME280;4931;44.874;-1.092;2023-05-02T07:12:46;101993.75;;;15.42;100.00
9784;BME280;4931;44.874;-1.092;2023-05-02T07:15:11;101991.63;;;15.79;100.00
9784;BME280;4931;44.874;-1.092;2023-05-02T07:17:38;102003.00;;;15.72;100.00
9784;BME280;4931;44.874;-1.092;2023-05-02T07:20:05;101993.97;;;15.56;100.00
9784;BME280;4931;44.874;-1.092;2023-05-02T07:22:31;101983.91;;;15.81;100.00
9784;BME280;4931;44.874;-1.092;2023-05-02T07:24:57;101996.00;;;16.35;100.00
9784;BME280;4931;44.874;-1.092;2023-05-02T07:27:23;101994.97;;;16.55;100.00
9784;BME280;4931;44.874;-1.092;2023-05-02T07:29:49;101997.41;;;16.62;100.00
9784;BME280;4931;44.874;-1.092;2023-05-02T07:32:14;101992.28;;;16.80;100.00
9784;BME280;4931;44.874;-1.092;2023-05-02T07:34:40;101977.66;;;17.03;100.00
9784;BME280;4931;44.874;-1.092;2023-05-02T07:37:05;101991.38;;;17.14;100.00
9784;BME280;4931;44.874;-1.092;2023-05-02T07:39:32;101991.75;;;17.31;100.00
9784;BME280;4931;44.874;-1.092;2023-05-02T07:41:57;101999.88;;;17.47;100.00
9784;BME280;4931;44.874;-1.092;2023-05-02T07:44:23;101987.06;;;17.70;100.00
9784;BME280;4931;44.874;-1.092;2023-05-02T07:46:48;101984.97;;;17.81;100.00
9784;BME280;4931;44.874;-1.092;2023-05-02T07:49:14;101983.59;;;18.02;100.00
9784;BME280;4931;44.874;-1.092;2023-05-02T07:51:39;101994.41;;;18.23;100.00
9784;BME280;4931;44.874;-1.092;2023-05-02T07:54:19;101992.66;;;18.60;100.00
9784;BME280;4931;44.874;-1.092;2023-05-02T07:56:45;101991.47;;;18.33;100.00
9784;BME280;4931;44.874;-1.092;2023-05-02T07:59:11;101988.88;;;18.37;100.00
9784;BME280;4931;44.874;-1.092;2023-05-02T08:01:38;101991.63;;;18.56;100.00
9784;BME280;4931;44.874;-1.092;2023-05-02T08:04:04;101989.16;;;18.68;100.00
9784;BME280;4931;44.874;-1.092;2023-05-02T08:06:29;101989.69;;;18.70;100.00
9784;BME280;4931;44.874;-1.092;2023-05-02T08:08:57;101969.47;;;18.51;100.00
9784;BME280;4931;44.874;-1.092;2023-05-02T08:11:22;101971.03;;;18.90;100.00
9784;BME280;4931;44.874;-1.092;2023-05-02T08:13:53;101976.50;;;18.95;100.00
9784;BME280;4931;44.874;-1.092;2023-05-02T08:16:19;101972.78;;;19.00;100.00
9784;BME280;4931;44.874;-1.092;2023-05-02T08:18:45;101975.66;;;19.36;100.00
9784;BME280;4931;44.874;-1.092;2023-05-02T08:21:11;101967.50;;;19.54;100.00
9784;BME280;4931;44.874;-1.092;2023-05-02T08:23:37;101961.91;;;19.54;100.00
9784;BME280;4931;44.874;-1.092;2023-05-02T08:26:03;101969.44;;;19.67;100.00
9784;BME280;4931;44.874;-1.092;2023-05-02T08:28:28;101972.19;;;20.18;100.00
9784;BME280;4931;44.874;-1.092;2023-05-02T08:30:54;101969.78;;;20.48;100.00
9784;BME280;4931;44.874;-1.092;2023-05-02T08:33:20;101971.81;;;20.33;100.00
9784;BME280;4931;44.874;-1.092;2023-05-02T08:35:45;101967.09;;;19.97;100.00
9784;BME280;4931;44.874;-1.092;2023-05-02T08:38:11;101970.84;;;19.93;100.00
9784;BME280;4931;44.874;-1.092;2023-05-02T08:40:37;101975.31;;;20.02;100.00
9784;BME280;4931;44.874;-1.092;2023-05-02T08:43:03;101969.63;;;20.30;100.00
9784;BME280;4931;44.874;-1.092;2023-05-02T08:45:41;101971.66;;;20.16;100.00
9784;BME280;4931;44.874;-1.092;2023-05-02T08:48:08;101980.78;;;20.53;100.00
9784;BME280;4931;44.874;-1.092;2023-05-02T08:50:38;101976.09;;;20.17;100.00
9784;BME280;4931;44.874;-1.092;2023-05-02T08:53:06;101984.25;;;19.77;100.00
9784;BME280;4931;44.874;-1.092;2023-05-02T08:55:37;101977.75;;;20.18;100.00
9784;BME280;4931;44.874;-1.092;2023-05-02T08:58:05;101974.78;;;20.37;100.00
9784;BME280;4931;44.874;-1.092;2023-05-02T09:00:31;101971.25;;;20.22;100.00
9784;BME280;4931;44.874;-1.092;2023-05-02T09:05:25;101973.16;;;20.67;100.00
9784;BME280;4931;44.874;-1.092;2023-05-02T09:07:50;101966.41;;;20.60;100.00
9784;BME280;4931;44.874;-1.092;2023-05-02T09:10:16;101971.44;;;21.12;100.00
9784;BME280;4931;44.874;-1.092;2023-05-02T09:12:42;101968.69;;;21.29;100.00
9784;BME280;4931;44.874;-1.092;2023-05-02T09:17:44;101966.66;;;21.12;100.00
9784;BME280;4931;44.874;-1.092;2023-05-02T09:20:12;101972.06;;;21.09;100.00
9784;BME280;4931;44.874;-1.092;2023-05-02T09:22:39;101962.44;;;21.23;100.00
9784;BME280;4931;44.874;-1.092;2023-05-02T09:25:11;101962.34;;;21.55;100.00
9784;BME280;4931;44.874;-1.092;2023-05-02T09:27:53;101966.06;;;21.33;100.00
9784;BME280;4931;44.874;-1.092;2023-05-02T09:32:46;101964.25;;;21.28;100.00
9784;BME280;4931;44.874;-1.092;2023-05-02T09:35:13;101974.38;;;21.15;100.00
9784;BME280;4931;44.874;-1.092;2023-05-02T09:37:49;101965.19;;;21.15;100.00
9784;BME280;4931;44.874;-1.092;2023-05-02T09:40:14;101967.75;;;21.02;100.00
9784;BME280;4931;44.874;-1.092;2023-05-02T09:42:40;101968.34;;;21.31;100.00
9784;BME280;4931;44.874;-1.092;2023-05-02T09:45:06;101971.47;;;21.29;100.00
9784;BME280;4931;44.874;-1.092;2023-05-02T09:47:31;101971.44;;;21.12;100.00
9784;BME280;4931;44.874;-1.092;2023-05-02T09:49:57;101974.69;;;21.14;100.00
9784;BME280;4931;44.874;-1.092;2023-05-02T09:52:22;101963.69;;;21.09;100.00
9784;BME280;4931;44.874;-1.092;2023-05-02T09:54:48;101950.31;;;21.46;100.00
9784;BME280;4931;44.874;-1.092;2023-05-02T09:57:17;101962.00;;;21.48;100.00
9784;BME280;4931;44.874;-1.092;2023-05-02T09:59:54;101945.09;;;21.53;94.48
9784;BME280;4931;44.874;-1.092;2023-05-02T10:02:20;101951.31;;;21.41;96.97
9784;BME280;4931;44.874;-1.092;2023-05-02T10:04:47;101944.31;;;21.61;96.41
9784;BME280;4931;44.874;-1.092;2023-05-02T10:07:14;101941.03;;;21.77;92.29
9784;BME280;4931;44.874;-1.092;2023-05-02T10:09:43;101943.81;;;21.94;94.42
9784;BME280;4931;44.874;-1.092;2023-05-02T10:12:13;101941.34;;;21.66;96.34
9784;BME280;4931;44.874;-1.092;2023-05-02T10:14:40;101946.84;;;21.31;99.69
9784;BME280;4931;44.874;-1.092;2023-05-02T10:17:11;101945.25;;;21.48;100.00
9784;BME280;4931;44.874;-1.092;2023-05-02T10:19:46;101923.63;;;21.80;100.00
9784;BME280;4931;44.874;-1.092;2023-05-02T10:22:18;101928.03;;;21.98;100.00
9784;BME280;4931;44.874;-1.092;2023-05-02T10:24:48;101924.59;;;22.36;94.29
9784;BME280;4931;44.874;-1.092;2023-05-02T10:27:13;101911.88;;;22.39;95.88
9784;BME280;4931;44.874;-1.092;2023-05-02T10:29:41;101912.75;;;22.04;93.62
9784;BME280;4931;44.874;-1.092;2023-05-02T10:32:06;101922.16;;;21.65;100.00
9784;BME280;4931;44.874;-1.092;2023-05-02T10:34:32;101919.97;;;21.35;95.99
9784;BME280;4931;44.874;-1.092;2023-05-02T10:37:01;101912.41;;;21.45;98.08
9784;BME280;4931;44.874;-1.092;2023-05-02T10:39:27;101911.13;;;21.86;92.48
9784;BME280;4931;44.874;-1.092;2023-05-02T10:41:54;101906.22;;;21.83;87.86
9784;BME280;4931;44.874;-1.092;2023-05-02T10:44:31;101899.78;;;21.91;86.54
9784;BME280;4931;44.874;-1.092;2023-05-02T10:46:58;101908.78;;;22.41;91.49
9784;BME280;4931;44.874;-1.092;2023-05-02T10:49:24;101900.66;;;22.95;88.50
9784;BME280;4931;44.874;-1.092;2023-05-02T10:51:51;101897.16;;;22.68;85.61
9784;BME280;4931;44.874;-1.092;2023-05-02T10:54:24;101907.97;;;22.14;88.50
9784;BME280;4931;44.874;-1.092;2023-05-02T11:01:56;101890.09;;;21.80;89.52
9784;BME280;4931;44.874;-1.092;2023-05-02T11:04:22;101893.38;;;21.99;92.36
9784;BME280;4931;44.874;-1.092;2023-05-02T11:09:29;101890.69;;;22.29;83.35
9784;BME280;4931;44.874;-1.092;2023-05-02T11:11:55;101887.56;;;22.31;90.48
9784;BME280;4931;44.874;-1.092;2023-05-02T11:24:44;101881.72;;;23.01;77.62
9784;BME280;4931;44.874;-1.092;2023-05-02T11:30:08;101864.22;;;22.27;83.44
9784;BME280;4931;44.874;-1.092;2023-05-02T11:35:25;101861.59;;;22.78;81.22
9784;BME280;4931;44.874;-1.092;2023-05-02T11:37:58;101864.28;;;23.25;88.50
9784;BME280;4931;44.874;-1.092;2023-05-02T11:40:26;101849.13;;;22.96;82.72
9784;BME280;4931;44.874;-1.092;2023-05-02T11:42:52;101856.28;;;22.85;78.80
9784;BME280;4931;44.874;-1.092;2023-05-02T11:45:17;101852.31;;;22.86;68.24
9784;BME280;4931;44.874;-1.092;2023-05-02T11:47:43;101859.28;;;23.31;71.08
9784;BME280;4931;44.874;-1.092;2023-05-02T11:50:13;101865.78;;;23.44;72.05
9784;BME280;4931;44.874;-1.092;2023-05-02T11:52:39;101860.13;;;23.01;72.60
9784;BME280;4931;44.874;-1.092;2023-05-02T11:55:07;101844.19;;;23.23;71.47
9784;BME280;4931;44.874;-1.092;2023-05-02T11:57:35;101834.38;;;23.59;68.48
9784;BME280;4931;44.874;-1.092;2023-05-02T12:00:01;101851.75;;;23.31;65.21
9784;BME280;4931;44.874;-1.092;2023-05-02T12:02:45;101844.16;;;23.02;61.74
9784;BME280;4931;44.874;-1.092;2023-05-02T12:05:14;101836.09;;;23.00;71.19
9784;BME280;4931;44.874;-1.092;2023-05-02T12:07:46;101836.03;;;23.18;72.75
9784;BME280;4931;44.874;-1.092;2023-05-02T12:10:13;101833.56;;;23.37;72.59
9784;BME280;4931;44.874;-1.092;2023-05-02T12:12:43;101831.09;;;23.57;70.90
9784;BME280;4931;44.874;-1.092;2023-05-02T12:15:10;101838.00;;;23.38;73.63
9784;BME280;4931;44.874;-1.092;2023-05-02T12:17:41;101829.13;;;23.36;66.46
9784;BME280;4931;44.874;-1.092;2023-05-02T12:20:08;101840.94;;;23.42;71.26
9784;BME280;4931;44.874;-1.092;2023-05-02T12:22:34;101826.34;;;23.15;73.85
9784;BME280;4931;44.874;-1.092;2023-05-02T12:25:00;101823.41;;;23.66;73.23
9784;BME280;4931;44.874;-1.092;2023-05-02T12:27:28;101825.19;;;23.92;74.02
9784;BME280;4931;44.874;-1.092;2023-05-02T12:29:54;101829.31;;;23.74;70.88
9784;BME280;4931;44.874;-1.092;2023-05-02T12:32:33;101819.50;;;23.25;73.18
9784;BME280;4931;44.874;-1.092;2023-05-02T12:34:59;101825.59;;;23.27;69.24
9784;BME280;4931;44.874;-1.092;2023-05-02T12:37:26;101824.41;;;23.49;74.66
9784;BME280;4931;44.874;-1.092;2023-05-02T12:39:53;101827.19;;;23.49;72.25
9784;BME280;4931;44.874;-1.092;2023-05-02T12:42:21;101822.22;;;23.55;74.05
9784;BME280;4931;44.874;-1.092;2023-05-02T12:44:48;101816.34;;;23.48;76.63
9784;BME280;4931;44.874;-1.092;2023-05-02T12:47:17;101807.69;;;23.41;70.75
9784;BME280;4931;44.874;-1.092;2023-05-02T12:49:54;101804.28;;;23.14;74.93
9784;BME280;4931;44.874;-1.092;2023-05-02T12:52:50;101809.56;;;23.36;73.76
9784;BME280;4931;44.874;-1.092;2023-05-02T12:55:25;101811.41;;;22.81;79.14
9784;BME280;4931;44.874;-1.092;2023-05-02T12:58:01;101810.63;;;23.23;77.24
9784;BME280;4931;44.874;-1.092;2023-05-02T13:00:27;101808.84;;;23.40;76.28
9784;BME280;4931;44.874;-1.092;2023-05-02T13:02:52;101807.97;;;23.27;75.93
9784;BME280;4931;44.874;-1.092;2023-05-02T13:05:18;101809.66;;;23.40;71.40
9784;BME280;4931;44.874;-1.092;2023-05-02T13:07:44;101807.34;;;23.42;75.36
9784;BME280;4931;44.874;-1.092;2023-05-02T13:10:10;101802.31;;;23.14;74.76
9784;BME280;4931;44.874;-1.092;2023-05-02T13:12:36;101811.84;;;23.13;74.52
9784;BME280;4931;44.874;-1.092;2023-05-02T13:15:03;101801.88;;;23.46;72.59
9784;BME280;4931;44.874;-1.092;2023-05-02T13:17:29;101797.78;;;23.01;68.01
9784;BME280;4931;44.874;-1.092;2023-05-02T13:19:55;101809.06;;;23.34;74.57
9784;BME280;4931;44.874;-1.092;2023-05-02T13:22:20;101804.75;;;23.16;73.75
9784;BME280;4931;44.874;-1.092;2023-05-02T13:24:46;101806.88;;;23.19;77.74
9784;BME280;4931;44.874;-1.092;2023-05-02T13:27:11;101794.22;;;23.13;72.44
9784;BME280;4931;44.874;-1.092;2023-05-02T13:29:37;101796.41;;;23.28;72.70
9784;BME280;4931;44.874;-1.092;2023-05-02T13:32:02;101802.03;;;23.28;72.74
9784;BME280;4931;44.874;-1.092;2023-05-02T13:34:27;101795.28;;;23.29;73.00
9784;BME280;4931;44.874;-1.092;2023-05-02T13:36:53;101797.09;;;23.46;70.42
9784;BME280;4931;44.874;-1.092;2023-05-02T13:39:18;101806.63;;;23.03;72.29
9784;BME280;4931;44.874;-1.092;2023-05-02T13:41:44;101813.09;;;22.74;74.12
9784;BME280;4931;44.874;-1.092;2023-05-02T13:44:10;101791.63;;;23.08;75.68
9784;BME280;4931;44.874;-1.092;2023-05-02T13:46:35;101792.19;;;23.43;75.11
9784;BME280;4931;44.874;-1.092;2023-05-02T13:49:05;101795.75;;;23.31;75.62
9784;BME280;4931;44.874;-1.092;2023-05-02T13:51:31;101793.56;;;23.16;76.86